createdAt,value
2018-11-13T00:00:02.358Z,10.67
2018-11-13T00:01:02.145Z,10.81
2018-11-13T00:02:02.244Z,10.66
2018-11-13T00:03:02.976Z,10.74
2018-11-13T00:04:02.362Z,10.69
2018-11-13T00:05:02.079Z,10.64
2018-11-13T00:06:02.380Z,10.64
2018-11-13T00:07:02.160Z,10.57
2018-11-13T00:08:02.084Z,10.8
2018-11-13T00:09:02.370Z,10.8
2018-11-13T00:10:02.131Z,10.87
2018-11-13T00:11:02.241Z,10.85
2018-11-13T00:12:02.270Z,10.86
2018-11-13T00:13:02.185Z,10.76
2018-11-13T00:14:02.012Z,10.74
2018-11-13T00:15:02.334Z,10.64
2018-11-13T00:16:02.110Z,10.61
2018-11-13T00:17:02.255Z,10.62
2018-11-13T00:18:02.225Z,10.61
2018-11-13T00:19:02.117Z,10.92
2018-11-13T00:20:02.356Z,10.93
2018-11-13T00:21:02.378Z,10.75
2018-11-13T00:22:01.995Z,10.75
2018-11-13T00:23:02.151Z,10.69
2018-11-13T00:24:02.338Z,10.77
2018-11-13T00:25:01.961Z,10.7
2018-11-13T00:26:02.195Z,10.68
2018-11-13T00:27:02.100Z,10.77
2018-11-13T00:28:02.047Z,10.72
2018-11-13T00:29:02.223Z,10.86
2018-11-13T00:30:01.985Z,10.84
2018-11-13T00:31:02.106Z,10.84
2018-11-13T00:32:02.142Z,10.79
2018-11-13T00:33:01.979Z,10.86
2018-11-13T00:34:02.096Z,10.94
2018-11-13T00:35:02.026Z,10.89
2018-11-13T00:36:02.069Z,10.85
2018-11-13T00:37:02.115Z,10.84
2018-11-13T00:38:02.074Z,10.73
2018-11-13T00:39:02.341Z,10.69
2018-11-13T00:40:02.028Z,10.66
2018-11-13T00:41:01.964Z,10.9
2018-11-13T00:42:01.949Z,10.97
2018-11-13T00:43:02.135Z,11
2018-11-13T00:44:01.976Z,11.02
2018-11-13T00:45:02.164Z,10.98
2018-11-13T00:46:02.709Z,10.94
2018-11-13T00:47:01.953Z,10.98
2018-11-13T00:48:01.993Z,10.96
2018-11-13T00:49:03.458Z,10.93
2018-11-13T00:50:02.252Z,10.94
2018-11-13T00:51:02.159Z,10.96
2018-11-13T00:52:02.265Z,10.91
2018-11-13T00:53:02.498Z,10.87
2018-11-13T00:54:02.060Z,10.81
2018-11-13T00:55:05.514Z,10.83
2018-11-13T00:56:02.098Z,10.86
2018-11-13T00:57:02.221Z,10.79
2018-11-13T00:58:02.015Z,10.82
2018-11-13T00:59:02.021Z,10.81
2018-11-13T01:00:02.363Z,10.73
2018-11-13T01:01:02.348Z,10.82
2018-11-13T01:02:02.439Z,10.71
2018-11-13T01:03:02.074Z,10.83
2018-11-13T01:04:02.064Z,10.74
2018-11-13T01:05:02.927Z,10.86
2018-11-13T01:06:02.073Z,10.89
2018-11-13T01:07:01.959Z,10.98
2018-11-13T01:08:02.178Z,10.87
2018-11-13T01:09:01.950Z,10.78
2018-11-13T01:10:02.066Z,10.81
2018-11-13T01:11:01.937Z,10.66
2018-11-13T01:12:02.206Z,10.71
2018-11-13T01:13:02.066Z,10.74
2018-11-13T01:14:01.987Z,10.69
2018-11-13T01:15:02.497Z,10.89
2018-11-13T01:16:01.927Z,10.92
2018-11-13T01:17:02.251Z,10.94
2018-11-13T01:18:02.543Z,10.86
2018-11-13T01:19:02.876Z,10.74
2018-11-13T01:20:02.093Z,10.83
2018-11-13T01:21:02.264Z,10.94
2018-11-13T01:22:01.980Z,10.8
2018-11-13T01:23:02.201Z,10.71
2018-11-13T01:24:04.171Z,10.7
2018-11-13T01:25:02.204Z,10.65
2018-11-13T01:26:02.415Z,10.66
2018-11-13T01:27:02.374Z,10.72
2018-11-13T01:28:01.929Z,10.69
2018-11-13T01:29:02.140Z,10.71
2018-11-13T01:30:02.724Z,10.68
2018-11-13T01:31:02.033Z,10.83
2018-11-13T01:32:01.983Z,10.89
2018-11-13T01:33:02.067Z,10.93
2018-11-13T01:34:02.410Z,10.99
2018-11-13T01:35:02.713Z,10.98
2018-11-13T01:36:01.963Z,10.86
2018-11-13T01:37:01.918Z,10.79
2018-11-13T01:38:02.282Z,10.8
2018-11-13T01:39:02.016Z,10.77
2018-11-13T01:40:01.992Z,10.85
2018-11-13T01:41:02.234Z,10.87
2018-11-13T01:42:01.862Z,10.85
2018-11-13T01:43:02.120Z,10.83
2018-11-13T01:44:02.120Z,10.9
2018-11-13T01:45:01.867Z,10.99
2018-11-13T01:46:02.246Z,10.84
2018-11-13T01:47:02.094Z,10.85
2018-11-13T01:48:02.675Z,10.9
2018-11-13T01:49:01.923Z,10.83
2018-11-13T01:50:01.851Z,10.77
2018-11-13T01:51:02.178Z,10.88
2018-11-13T01:52:02.046Z,10.79
2018-11-13T01:53:02.099Z,10.77
2018-11-13T01:54:02.184Z,10.84
2018-11-13T01:55:02.388Z,10.97
2018-11-13T01:56:01.848Z,10.94
2018-11-13T01:57:02.200Z,11.08
2018-11-13T01:58:01.897Z,11.14
2018-11-13T01:59:01.854Z,11.08
2018-11-13T02:00:01.820Z,11.05
2018-11-13T02:01:01.871Z,10.92
2018-11-13T02:02:01.882Z,10.86
2018-11-13T02:03:01.854Z,11.05
2018-11-13T02:04:02.156Z,11.07
2018-11-13T02:05:01.809Z,11.14
2018-11-13T02:06:01.864Z,11.06
2018-11-13T02:07:01.913Z,10.98
2018-11-13T02:08:01.838Z,10.99
2018-11-13T02:09:01.827Z,10.85
2018-11-13T02:10:01.868Z,10.92
2018-11-13T02:11:01.873Z,10.97
2018-11-13T02:12:01.845Z,10.97
2018-11-13T02:13:01.867Z,10.99
2018-11-13T02:14:01.825Z,11.05
2018-11-13T02:15:01.835Z,11.06
2018-11-13T02:16:01.822Z,11.01
2018-11-13T02:17:01.826Z,11.02
2018-11-13T02:18:02.283Z,10.99
2018-11-13T02:19:01.900Z,10.91
2018-11-13T02:20:02.163Z,10.9
2018-11-13T02:21:02.060Z,11.01
2018-11-13T02:22:01.800Z,11
2018-11-13T02:23:02.094Z,11.05
2018-11-13T02:24:01.892Z,10.97
2018-11-13T02:25:01.851Z,11.07
2018-11-13T02:26:02.046Z,11.17
2018-11-13T02:27:02.040Z,11.03
2018-11-13T02:28:02.121Z,11
2018-11-13T02:29:02.329Z,10.91
2018-11-13T02:30:01.916Z,10.88
2018-11-13T02:31:01.801Z,10.87
2018-11-13T02:32:01.835Z,10.82
2018-11-13T02:33:02.069Z,10.89
2018-11-13T02:34:02.161Z,10.92
2018-11-13T02:35:02.216Z,11.04
2018-11-13T02:36:01.900Z,11
2018-11-13T02:37:01.844Z,10.91
2018-11-13T02:38:01.836Z,10.9
2018-11-13T02:39:01.802Z,10.83
2018-11-13T02:40:02.342Z,10.85
2018-11-13T02:41:02.002Z,10.95
2018-11-13T02:42:01.917Z,10.95
2018-11-13T02:43:02.256Z,10.87
2018-11-13T02:44:01.886Z,10.82
2018-11-13T02:45:02.135Z,10.79
2018-11-13T02:46:01.871Z,10.76
2018-11-13T02:47:01.909Z,10.82
2018-11-13T02:48:02.002Z,10.81
2018-11-13T02:49:01.902Z,10.91
2018-11-13T02:50:01.884Z,10.88
2018-11-13T02:51:01.804Z,10.97
2018-11-13T02:52:02.204Z,10.97
2018-11-13T02:53:01.804Z,10.96
2018-11-13T02:54:01.808Z,10.96
2018-11-13T02:55:02.121Z,11
2018-11-13T02:56:01.792Z,10.98
2018-11-13T02:57:01.775Z,10.96
2018-11-13T02:58:02.146Z,11
2018-11-13T02:59:01.893Z,10.99
2018-11-13T03:00:01.902Z,10.94
2018-11-13T03:01:01.740Z,10.98
2018-11-13T03:02:01.863Z,10.96
2018-11-13T03:03:01.774Z,10.94
2018-11-13T03:04:01.821Z,11.07
2018-11-13T03:05:02.107Z,11.12
2018-11-13T03:06:02.288Z,11.12
2018-11-13T03:07:01.797Z,11.16
2018-11-13T03:08:01.992Z,11.19
2018-11-13T03:09:02.017Z,11.2
2018-11-13T03:10:01.885Z,11.2
2018-11-13T03:11:01.878Z,11.23
2018-11-13T03:12:02.126Z,11.16
2018-11-13T03:13:01.815Z,11.1
2018-11-13T03:14:01.762Z,11.06
2018-11-13T03:15:01.883Z,11.01
2018-11-13T03:16:01.778Z,11
2018-11-13T03:17:01.904Z,10.99
2018-11-13T03:18:01.952Z,10.99
2018-11-13T03:19:01.841Z,10.91
2018-11-13T03:20:01.775Z,10.94
2018-11-13T03:21:02.015Z,10.9
2018-11-13T03:22:02.238Z,11
2018-11-13T03:23:01.748Z,11.04
2018-11-13T03:24:01.729Z,11.03
2018-11-13T03:25:01.890Z,11.03
2018-11-13T03:26:01.762Z,11.06
2018-11-13T03:27:01.913Z,10.99
2018-11-13T03:28:01.878Z,10.94
2018-11-13T03:29:01.763Z,11.01
2018-11-13T03:30:01.771Z,11.09
2018-11-13T03:31:02.101Z,11.07
2018-11-13T03:32:01.749Z,11.03
2018-11-13T03:33:01.911Z,11.09
2018-11-13T03:34:01.801Z,11.06
2018-11-13T03:35:01.729Z,11.04
2018-11-13T03:36:01.758Z,11.1
2018-11-13T03:37:01.691Z,11.03
2018-11-13T03:38:01.788Z,11.02
2018-11-13T03:39:01.710Z,11.06
2018-11-13T03:40:01.694Z,11.15
2018-11-13T03:41:01.716Z,11.19
2018-11-13T03:42:01.753Z,11.25
2018-11-13T03:43:01.715Z,11.2
2018-11-13T03:44:01.728Z,11.14
2018-11-13T03:45:01.833Z,11.07
2018-11-13T03:46:01.737Z,11.24
2018-11-13T03:47:01.759Z,11.12
2018-11-13T03:48:01.722Z,11.2
2018-11-13T03:49:02.076Z,11.13
2018-11-13T03:50:01.855Z,11.11
2018-11-13T03:51:02.033Z,11.12
2018-11-13T03:52:02.407Z,11.18
2018-11-13T03:53:02.542Z,11.07
2018-11-13T03:54:01.815Z,11.02
2018-11-13T03:55:01.837Z,11.07
2018-11-13T03:56:01.846Z,11.06
2018-11-13T03:57:01.699Z,11.26
2018-11-13T03:58:01.716Z,11.15
2018-11-13T03:59:01.784Z,11.14
2018-11-13T04:00:02.110Z,11.09
2018-11-13T04:01:01.850Z,11.18
2018-11-13T04:02:01.697Z,11.11
2018-11-13T04:03:01.775Z,11.12
2018-11-13T04:04:01.740Z,11.1
2018-11-13T04:05:01.836Z,11.21
2018-11-13T04:06:01.760Z,11.29
2018-11-13T04:07:01.802Z,11.36
2018-11-13T04:08:02.534Z,11.31
2018-11-13T04:09:01.837Z,11.39
2018-11-13T04:10:01.757Z,11.31
2018-11-13T04:11:01.860Z,11.31
2018-11-13T04:12:01.672Z,11.29
2018-11-13T04:13:01.731Z,11.25
2018-11-13T04:14:01.705Z,11.22
2018-11-13T04:15:01.689Z,11.19
2018-11-13T04:16:01.690Z,11.28
2018-11-13T04:17:01.722Z,11.32
2018-11-13T04:18:01.817Z,11.38
2018-11-13T04:19:01.815Z,11.4
2018-11-13T04:20:01.687Z,11.35
2018-11-13T04:21:01.727Z,11.3
2018-11-13T04:22:01.950Z,11.29
2018-11-13T04:23:01.753Z,11.23
2018-11-13T04:24:01.715Z,11.32
2018-11-13T04:25:02.532Z,11.29
2018-11-13T04:26:01.934Z,11.28
2018-11-13T04:27:01.888Z,11.24
2018-11-13T04:28:01.727Z,11.26
2018-11-13T04:29:01.685Z,11.29
2018-11-13T04:30:01.742Z,11.29
2018-11-13T04:31:01.730Z,11.28
2018-11-13T04:32:01.704Z,11.28
2018-11-13T04:33:01.751Z,11.28
2018-11-13T04:34:02.118Z,11.25
2018-11-13T04:35:01.800Z,11.26
2018-11-13T04:36:01.764Z,11.25
2018-11-13T04:37:01.704Z,11.31
2018-11-13T04:38:01.736Z,11.25
2018-11-13T04:39:01.701Z,11.24
2018-11-13T04:40:02.099Z,11.29
2018-11-13T04:41:01.769Z,11.23
2018-11-13T04:42:01.857Z,11.31
2018-11-13T04:43:01.717Z,11.35
2018-11-13T04:44:01.738Z,11.25
2018-11-13T04:45:01.787Z,11.28
2018-11-13T04:46:01.719Z,11.25
2018-11-13T04:47:01.886Z,11.28
2018-11-13T04:48:01.749Z,11.24
2018-11-13T04:49:01.725Z,11.26
2018-11-13T04:50:01.824Z,11.26
2018-11-13T04:51:01.687Z,11.21
2018-11-13T04:52:01.779Z,11.23
2018-11-13T04:53:01.878Z,11.24
2018-11-13T04:54:01.876Z,11.28
2018-11-13T04:55:01.947Z,11.3
2018-11-13T04:56:01.793Z,11.31
2018-11-13T04:57:01.767Z,11.33
2018-11-13T04:58:01.754Z,11.32
2018-11-13T04:59:01.813Z,11.25
2018-11-13T05:00:01.995Z,11.27
2018-11-13T05:01:01.638Z,11.35
2018-11-13T05:02:01.652Z,11.3
2018-11-13T05:03:02.188Z,11.31
2018-11-13T05:04:01.590Z,11.34
2018-11-13T05:05:02.029Z,11.26
2018-11-13T05:06:01.628Z,11.35
2018-11-13T05:07:01.610Z,11.34
2018-11-13T05:08:01.643Z,11.35
2018-11-13T05:09:01.572Z,11.32
2018-11-13T05:10:02.470Z,11.36
2018-11-13T05:11:01.581Z,11.36
2018-11-13T05:12:01.589Z,11.31
2018-11-13T05:13:01.631Z,11.27
2018-11-13T05:14:01.647Z,11.25
2018-11-13T05:15:01.609Z,11.27
2018-11-13T05:16:01.602Z,11.37
2018-11-13T05:17:01.590Z,11.34
2018-11-13T05:18:01.578Z,11.31
2018-11-13T05:19:01.601Z,11.34
2018-11-13T05:20:01.667Z,11.35
2018-11-13T05:21:01.607Z,11.36
2018-11-13T05:22:01.660Z,11.38
2018-11-13T05:23:02.003Z,11.37
2018-11-13T05:24:01.570Z,11.37
2018-11-13T05:25:01.700Z,11.35
2018-11-13T05:26:02.421Z,11.34
2018-11-13T05:27:01.596Z,11.3
2018-11-13T05:28:01.669Z,11.32
2018-11-13T05:29:01.880Z,11.32
2018-11-13T05:30:01.783Z,11.37
2018-11-13T05:31:01.643Z,11.35
2018-11-13T05:32:01.670Z,11.33
2018-11-13T05:33:01.792Z,11.37
2018-11-13T05:34:01.623Z,11.4
2018-11-13T05:35:01.770Z,11.39
2018-11-13T05:36:01.691Z,11.39
2018-11-13T05:37:01.603Z,11.4
2018-11-13T05:38:01.739Z,11.44
2018-11-13T05:39:01.622Z,11.44
2018-11-13T05:40:01.830Z,11.43
2018-11-13T05:41:01.722Z,11.41
2018-11-13T05:42:01.605Z,11.39
2018-11-13T05:43:01.568Z,11.39
2018-11-13T05:44:01.644Z,11.42
2018-11-13T05:45:01.776Z,11.47
2018-11-13T05:46:01.526Z,11.48
2018-11-13T05:47:01.942Z,11.45
2018-11-13T05:48:01.625Z,11.47
2018-11-13T05:49:01.817Z,11.41
2018-11-13T05:50:01.697Z,11.39
2018-11-13T05:51:01.627Z,11.43
2018-11-13T05:52:01.575Z,11.43
2018-11-13T05:53:01.582Z,11.46
2018-11-13T05:54:01.498Z,11.47
2018-11-13T05:55:01.562Z,11.45
2018-11-13T05:56:01.581Z,11.49
2018-11-13T05:57:01.775Z,11.51
2018-11-13T05:58:01.637Z,11.52
2018-11-13T05:59:01.750Z,11.51
2018-11-13T06:00:01.970Z,11.53
2018-11-13T06:01:01.612Z,11.54
2018-11-13T06:02:01.886Z,11.56
2018-11-13T06:03:01.564Z,11.55
2018-11-13T06:04:01.489Z,11.55
2018-11-13T06:05:01.747Z,11.52
2018-11-13T06:06:01.566Z,11.5
2018-11-13T06:07:01.575Z,11.46
2018-11-13T06:08:01.865Z,11.53
2018-11-13T06:09:01.624Z,11.55
2018-11-13T06:10:01.531Z,11.53
2018-11-13T06:11:01.995Z,11.56
2018-11-13T06:12:01.589Z,11.56
2018-11-13T06:13:01.557Z,11.55
2018-11-13T06:14:02.222Z,11.53
2018-11-13T06:15:01.568Z,11.49
2018-11-13T06:16:01.556Z,11.53
2018-11-13T06:17:01.817Z,11.54
2018-11-13T06:18:01.958Z,11.52
2018-11-13T06:19:01.565Z,11.51
2018-11-13T06:20:01.738Z,11.52
2018-11-13T06:21:01.553Z,11.57
2018-11-13T06:22:01.769Z,11.53
2018-11-13T06:23:02.587Z,11.48
2018-11-13T06:24:01.608Z,11.47
2018-11-13T06:25:01.670Z,11.49
2018-11-13T06:26:01.796Z,11.48
2018-11-13T06:27:01.490Z,11.45
2018-11-13T06:28:01.842Z,11.44
2018-11-13T06:29:01.558Z,11.53
2018-11-13T06:30:01.557Z,11.48
2018-11-13T06:31:01.689Z,11.45
2018-11-13T06:32:01.575Z,11.44
2018-11-13T06:33:01.619Z,11.5
2018-11-13T06:34:01.490Z,11.49
2018-11-13T06:35:01.506Z,11.43
2018-11-13T06:36:02.140Z,11.41
2018-11-13T06:37:01.513Z,11.37
2018-11-13T06:38:01.743Z,11.4
2018-11-13T06:39:01.774Z,11.44
2018-11-13T06:40:01.486Z,11.43
2018-11-13T06:41:01.490Z,11.38
2018-11-13T06:42:01.475Z,11.38
2018-11-13T06:43:01.952Z,11.34
2018-11-13T06:44:01.449Z,11.36
2018-11-13T06:45:01.576Z,11.36
2018-11-13T06:46:01.665Z,11.36
2018-11-13T06:47:01.470Z,11.33
2018-11-13T06:48:01.498Z,11.35
2018-11-13T06:49:01.853Z,11.35
2018-11-13T06:50:01.464Z,11.34
2018-11-13T06:51:01.473Z,11.31
2018-11-13T06:52:01.762Z,11.39
2018-11-13T06:53:01.447Z,11.32
2018-11-13T06:54:01.456Z,11.32
2018-11-13T06:55:01.469Z,11.37
2018-11-13T06:56:01.443Z,11.37
2018-11-13T06:57:01.683Z,11.41
2018-11-13T06:58:01.438Z,11.44
2018-11-13T06:59:01.434Z,11.45
2018-11-13T07:00:01.661Z,11.41
2018-11-13T07:01:01.733Z,11.37
2018-11-13T07:02:01.470Z,11.35
2018-11-13T07:03:01.520Z,11.32
2018-11-13T07:04:01.456Z,11.31
2018-11-13T07:05:02.191Z,11.32
2018-11-13T07:06:01.470Z,11.31
2018-11-13T07:07:02.063Z,11.35
2018-11-13T07:08:01.552Z,11.33
2018-11-13T07:09:01.449Z,11.31
2018-11-13T07:10:01.453Z,11.35
2018-11-13T07:11:01.784Z,11.39
2018-11-13T07:12:01.645Z,11.38
2018-11-13T07:13:01.555Z,11.33
2018-11-13T07:14:01.591Z,11.32
2018-11-13T07:15:01.590Z,11.31
2018-11-13T07:16:01.643Z,11.31
2018-11-13T07:17:01.432Z,11.3
2018-11-13T07:18:01.883Z,11.34
2018-11-13T07:19:01.410Z,11.3
2018-11-13T07:20:01.433Z,11.29
2018-11-13T07:21:01.530Z,11.32
2018-11-13T07:22:01.476Z,11.33
2018-11-13T07:23:01.495Z,11.3
2018-11-13T07:24:01.591Z,11.39
2018-11-13T07:25:01.777Z,11.33
2018-11-13T07:26:01.450Z,11.33
2018-11-13T07:27:01.874Z,11.34
2018-11-13T07:28:02.760Z,11.31
2018-11-13T07:29:01.484Z,11.3
2018-11-13T07:30:01.632Z,11.29
2018-11-13T07:31:01.653Z,11.28
2018-11-13T07:32:01.620Z,11.3
2018-11-13T07:33:01.604Z,11.37
2018-11-13T07:34:01.570Z,11.31
2018-11-13T07:35:01.786Z,11.24
2018-11-13T07:36:01.644Z,11.24
2018-11-13T07:37:01.440Z,11.21
2018-11-13T07:38:01.595Z,11.17
2018-11-13T07:39:01.477Z,11.16
2018-11-13T07:40:01.441Z,11.18
2018-11-13T07:41:02.004Z,11.16
2018-11-13T07:42:01.539Z,11.2
2018-11-13T07:43:01.440Z,11.19
2018-11-13T07:44:01.851Z,11.16
2018-11-13T07:45:01.723Z,11.17
2018-11-13T07:46:01.437Z,11.13
2018-11-13T07:47:02.161Z,11.08
2018-11-13T07:48:02.068Z,11.07
2018-11-13T07:49:01.445Z,11.09
2018-11-13T07:50:01.557Z,11.07
2018-11-13T07:51:01.645Z,10.98
2018-11-13T07:52:01.484Z,10.98
2018-11-13T07:53:01.593Z,11
2018-11-13T07:54:02.250Z,11.02
2018-11-13T07:55:01.602Z,10.94
2018-11-13T07:56:01.474Z,10.89
2018-11-13T07:57:01.548Z,10.9
2018-11-13T07:58:01.438Z,10.94
2018-11-13T07:59:01.407Z,10.92
2018-11-13T08:00:01.716Z,10.91
2018-11-13T08:01:01.486Z,10.87
2018-11-13T08:02:01.394Z,10.88
2018-11-13T08:03:01.349Z,10.91
2018-11-13T08:04:01.411Z,10.96
2018-11-13T08:05:01.686Z,10.93
2018-11-13T08:06:01.752Z,10.91
2018-11-13T08:07:01.479Z,10.96
2018-11-13T08:08:01.427Z,10.99
2018-11-13T08:09:01.466Z,10.98
2018-11-13T08:10:01.311Z,11
2018-11-13T08:11:01.426Z,11.04
2018-11-13T08:12:02.851Z,11.01
2018-11-13T08:13:02.426Z,11.02
2018-11-13T08:14:01.476Z,11
2018-11-13T08:15:01.392Z,11.01
2018-11-13T08:16:01.539Z,10.96
2018-11-13T08:17:01.387Z,11.05
2018-11-13T08:18:01.370Z,10.94
2018-11-13T08:19:01.381Z,10.96
2018-11-13T08:20:01.341Z,10.88
2018-11-13T08:21:01.543Z,10.86
2018-11-13T08:22:01.875Z,10.78
2018-11-13T08:23:01.413Z,10.85
2018-11-13T08:24:01.293Z,10.91
2018-11-13T08:25:01.476Z,10.97
2018-11-13T08:26:01.305Z,10.96
2018-11-13T08:27:01.963Z,10.85
2018-11-13T08:28:01.673Z,10.81
2018-11-13T08:29:02.934Z,10.74
2018-11-13T08:30:01.304Z,10.75
2018-11-13T08:31:01.333Z,10.83
2018-11-13T08:32:01.384Z,10.76
2018-11-13T08:33:01.360Z,10.72
2018-11-13T08:34:01.723Z,10.66
2018-11-13T08:35:02.366Z,10.71
2018-11-13T08:36:01.288Z,10.76
2018-11-13T08:37:01.345Z,10.7
2018-11-13T08:38:01.490Z,10.7
2018-11-13T08:39:01.385Z,10.69
2018-11-13T08:40:01.307Z,10.73
2018-11-13T08:41:01.307Z,10.68
2018-11-13T08:42:01.387Z,10.68
2018-11-13T08:43:01.456Z,10.68
2018-11-13T08:44:02.263Z,10.7
2018-11-13T08:45:01.325Z,10.73
2018-11-13T08:46:01.262Z,10.71
2018-11-13T08:47:01.301Z,10.62
2018-11-13T08:48:02.133Z,10.63
2018-11-13T08:49:01.439Z,10.64
2018-11-13T08:50:01.314Z,10.64
2018-11-13T08:51:01.400Z,10.55
2018-11-13T08:52:01.662Z,10.58
2018-11-13T08:53:01.339Z,10.66
2018-11-13T08:54:01.298Z,10.63
2018-11-13T08:55:01.694Z,10.61
2018-11-13T08:56:01.560Z,10.65
2018-11-13T08:57:01.266Z,10.64
2018-11-13T08:58:01.260Z,10.65
2018-11-13T08:59:02.313Z,10.66
2018-11-13T09:00:01.276Z,10.64
2018-11-13T09:01:01.345Z,10.58
2018-11-13T09:02:01.476Z,10.62
2018-11-13T09:03:01.423Z,10.61
2018-11-13T09:04:01.547Z,10.65
2018-11-13T09:05:02.168Z,10.7
2018-11-13T09:06:01.826Z,10.66
2018-11-13T09:07:01.524Z,10.65
2018-11-13T09:08:01.320Z,10.7
2018-11-13T09:09:01.412Z,10.67
2018-11-13T09:10:01.247Z,10.72
2018-11-13T09:11:01.488Z,10.71
2018-11-13T09:12:03.377Z,10.67
2018-11-13T09:13:01.530Z,10.64
2018-11-13T09:14:01.256Z,10.62
2018-11-13T09:15:01.251Z,10.65
2018-11-13T09:16:01.549Z,10.66
2018-11-13T09:17:01.533Z,10.7
2018-11-13T09:18:01.953Z,10.69
2018-11-13T09:19:01.916Z,10.62
2018-11-13T09:20:01.595Z,10.71
2018-11-13T09:21:01.608Z,10.7
2018-11-13T09:22:01.452Z,10.68
2018-11-13T09:23:01.370Z,10.72
2018-11-13T09:24:01.290Z,10.73
2018-11-13T09:25:01.217Z,10.76
2018-11-13T09:26:01.278Z,10.77
2018-11-13T09:27:01.229Z,10.77
2018-11-13T09:28:01.285Z,10.75
2018-11-13T09:29:01.256Z,10.74
2018-11-13T09:30:02.303Z,10.79
2018-11-13T09:31:03.040Z,10.8
2018-11-13T09:32:01.303Z,10.8
2018-11-13T09:33:01.940Z,10.85
2018-11-13T09:34:01.398Z,10.77
2018-11-13T09:35:01.524Z,10.76
2018-11-13T09:36:01.360Z,10.75
2018-11-13T09:37:01.540Z,10.72
2018-11-13T09:38:01.297Z,10.79
2018-11-13T09:39:01.250Z,10.8
2018-11-13T09:40:01.506Z,10.8
2018-11-13T09:41:01.282Z,10.83
2018-11-13T09:42:01.471Z,10.79
2018-11-13T09:43:01.310Z,10.68
2018-11-13T09:44:01.515Z,10.76
2018-11-13T09:45:02.334Z,10.78
2018-11-13T09:46:02.022Z,10.71
2018-11-13T09:47:01.218Z,10.73
2018-11-13T09:48:01.268Z,10.72
2018-11-13T09:49:01.254Z,10.75
2018-11-13T09:50:01.309Z,10.7
2018-11-13T09:51:01.299Z,10.71
2018-11-13T09:52:01.216Z,10.76
2018-11-13T09:53:01.209Z,10.71
2018-11-13T09:54:01.231Z,10.75
2018-11-13T09:55:01.258Z,10.74
2018-11-13T09:56:01.290Z,10.74
2018-11-13T09:57:01.370Z,10.73
2018-11-13T09:58:01.209Z,10.67
2018-11-13T09:59:01.829Z,10.7
2018-11-13T10:00:02.094Z,10.74
2018-11-13T10:01:03.478Z,10.77
2018-11-13T10:02:05.259Z,10.74
2018-11-13T10:03:06.872Z,10.7
2018-11-13T10:04:05.883Z,10.69
2018-11-13T10:05:07.124Z,10.68
2018-11-13T10:06:01.899Z,10.67
2018-11-13T10:07:01.601Z,10.7
2018-11-13T10:08:01.509Z,10.71
2018-11-13T10:09:01.213Z,10.71
2018-11-13T10:10:01.501Z,10.76
2018-11-13T10:11:01.377Z,10.7
2018-11-13T10:12:01.252Z,10.69
2018-11-13T10:13:01.534Z,10.71
2018-11-13T10:14:01.604Z,10.76
2018-11-13T10:15:01.338Z,10.75
2018-11-13T10:16:01.216Z,10.8
2018-11-13T10:17:01.385Z,10.74
2018-11-13T10:18:02.613Z,10.75
2018-11-13T10:19:01.450Z,10.76
2018-11-13T10:20:01.171Z,10.75
2018-11-13T10:21:01.201Z,10.76
2018-11-13T10:22:01.292Z,10.78
2018-11-13T10:23:01.510Z,10.84
2018-11-13T10:24:01.291Z,10.83
2018-11-13T10:25:01.333Z,10.86
2018-11-13T10:26:01.197Z,10.81
2018-11-13T10:27:01.882Z,10.88
2018-11-13T10:28:01.804Z,10.92
2018-11-13T10:29:01.342Z,10.85
2018-11-13T10:30:02.413Z,10.84
2018-11-13T10:31:01.248Z,10.87
2018-11-13T10:32:01.167Z,10.91
2018-11-13T10:33:01.447Z,10.86
2018-11-13T10:34:01.599Z,10.89
2018-11-13T10:35:01.285Z,10.87
2018-11-13T10:36:01.246Z,10.85
2018-11-13T10:37:01.975Z,10.85
2018-11-13T10:38:01.292Z,10.76
2018-11-13T10:39:01.490Z,10.8
2018-11-13T10:40:01.752Z,10.78
2018-11-13T10:41:02.050Z,10.65
2018-11-13T10:42:01.237Z,10.63
2018-11-13T10:43:01.232Z,10.46
2018-11-13T10:44:01.235Z,10.6
2018-11-13T10:45:01.161Z,10.63
2018-11-13T10:46:01.180Z,10.53
2018-11-13T10:47:01.220Z,10.62
2018-11-13T10:48:01.262Z,10.72
2018-11-13T10:49:01.596Z,10.7
2018-11-13T10:50:01.499Z,10.6
2018-11-13T10:51:01.280Z,10.52
2018-11-13T10:52:01.302Z,10.59
2018-11-13T10:53:01.171Z,10.6
2018-11-13T10:54:01.169Z,10.57
2018-11-13T10:55:01.249Z,10.54
2018-11-13T10:56:01.227Z,10.62
2018-11-13T10:57:01.718Z,10.52
2018-11-13T10:58:01.257Z,10.44
2018-11-13T10:59:01.189Z,10.54
2018-11-13T11:00:01.255Z,10.41
2018-11-13T11:01:01.405Z,10.48
2018-11-13T11:02:01.428Z,10.45
2018-11-13T11:03:02.216Z,10.43
2018-11-13T11:04:01.386Z,10.51
2018-11-13T11:05:01.256Z,10.56
2018-11-13T11:07:01.483Z,10.57
2018-11-13T11:08:01.158Z,10.48
2018-11-13T11:09:01.128Z,10.48
2018-11-13T11:10:01.637Z,10.47
2018-11-13T11:11:01.415Z,10.54
2018-11-13T11:12:01.154Z,10.48
2018-11-13T11:13:02.493Z,10.43
2018-11-13T11:14:03.001Z,10.44
2018-11-13T11:15:01.205Z,10.42
2018-11-13T11:16:01.386Z,10.42
2018-11-13T11:17:01.194Z,10.47
2018-11-13T11:18:01.627Z,10.57
2018-11-13T11:19:02.620Z,10.57
2018-11-13T11:20:01.148Z,10.66
2018-11-13T11:21:01.159Z,10.67
2018-11-13T11:22:01.122Z,10.79
2018-11-13T11:23:01.450Z,10.81
2018-11-13T11:24:01.573Z,10.72
2018-11-13T11:25:01.418Z,10.74
2018-11-13T11:26:01.155Z,10.6
2018-11-13T11:27:01.082Z,10.54
2018-11-13T11:28:01.400Z,10.59
2018-11-13T11:29:01.151Z,10.64
2018-11-13T11:30:01.171Z,10.57
2018-11-13T11:31:01.730Z,10.53
2018-11-13T11:32:01.049Z,10.48
2018-11-13T11:33:01.144Z,10.51
2018-11-13T11:34:01.137Z,10.49
2018-11-13T11:35:01.348Z,10.55
2018-11-13T11:36:01.380Z,10.66
2018-11-13T11:37:01.125Z,10.61
2018-11-13T11:38:01.150Z,10.66
2018-11-13T11:39:02.886Z,10.73
2018-11-13T11:40:01.082Z,10.49
2018-11-13T11:41:01.147Z,10.49
2018-11-13T11:42:01.051Z,10.41
2018-11-13T11:43:01.177Z,10.33
2018-11-13T11:44:01.043Z,10.29
2018-11-13T11:45:01.538Z,10.39
2018-11-13T11:47:01.655Z,10.29
2018-11-13T11:48:01.042Z,10.37
2018-11-13T11:49:01.191Z,10.36
2018-11-13T11:50:01.211Z,10.22
2018-11-13T11:51:01.638Z,10.46
2018-11-13T11:52:01.726Z,10.39
2018-11-13T11:53:01.074Z,10.48
2018-11-13T11:54:02.173Z,10.32
2018-11-13T11:55:01.285Z,10.34
2018-11-13T11:56:01.859Z,10.35
2018-11-13T11:57:01.191Z,10.26
2018-11-13T11:58:01.445Z,10.3
2018-11-13T11:59:01.264Z,10.21
2018-11-13T12:00:01.446Z,10.29
2018-11-13T12:01:01.419Z,10.42
2018-11-13T12:02:01.262Z,10.38
2018-11-13T12:03:01.226Z,10.25
2018-11-13T12:04:01.424Z,10.33
2018-11-13T12:05:01.138Z,10.36
2018-11-13T12:06:01.060Z,10.34
2018-11-13T12:07:01.016Z,10.28
2018-11-13T12:08:01.121Z,10.36
2018-11-13T12:09:01.123Z,10.28
2018-11-13T12:10:01.388Z,10.42
2018-11-13T12:11:01.025Z,10.37
2018-11-13T12:12:01.342Z,10.34
2018-11-13T12:13:01.150Z,10.26
2018-11-13T12:14:01.401Z,10.39
2018-11-13T12:15:01.140Z,10.43
2018-11-13T12:16:01.099Z,10.39
2018-11-13T12:17:01.231Z,10.43
2018-11-13T12:18:00.997Z,10.29
2018-11-13T12:19:02.273Z,10.32
2018-11-13T12:20:01.130Z,10.46
2018-11-13T12:21:01.389Z,10.35
2018-11-13T12:22:01.228Z,10.28
2018-11-13T12:23:01.022Z,10.23
2018-11-13T12:24:01.183Z,10.25
2018-11-13T12:25:01.101Z,10.19
2018-11-13T12:26:01.294Z,10.32
2018-11-13T12:27:01.028Z,10.39
2018-11-13T12:28:01.306Z,10.4
2018-11-13T12:29:01.102Z,10.34
2018-11-13T12:30:01.067Z,10.36
2018-11-13T12:31:01.260Z,10.32
2018-11-13T12:32:01.378Z,10.32
2018-11-13T12:33:01.331Z,10.37
2018-11-13T12:34:01.279Z,10.26
2018-11-13T12:35:01.128Z,10.38
2018-11-13T12:36:01.128Z,10.38
2018-11-13T12:37:01.140Z,10.33
2018-11-13T12:38:01.274Z,10.41
2018-11-13T12:39:01.133Z,10.33
2018-11-13T12:40:01.047Z,10.31
2018-11-13T12:41:02.246Z,10.31
2018-11-13T12:42:01.488Z,10.19
2018-11-13T12:43:01.038Z,10.15
2018-11-13T12:44:01.094Z,10.14
2018-11-13T12:45:01.188Z,10.25
2018-11-13T12:46:01.397Z,10.08
2018-11-13T12:47:01.109Z,10.2
2018-11-13T12:48:01.107Z,10.23
2018-11-13T12:49:02.742Z,10.15
2018-11-13T12:50:01.515Z,10.12
2018-11-13T12:51:01.297Z,10.1
2018-11-13T12:52:01.252Z,10.21
2018-11-13T12:53:00.942Z,10.31
2018-11-13T12:54:01.080Z,10.26
2018-11-13T12:55:01.019Z,10.15
2018-11-13T12:56:01.449Z,10.22
2018-11-13T12:57:00.997Z,10.01